sensor_id;sensor_type;location;lat;lon;timestamp;temperature;humidity
22130;DHT22;11231;50.746;4.272;2023-08-06T00:00:27;16.90;99.90
22130;DHT22;11231;50.746;4.272;2023-08-06T00:02:53;16.90;99.90
22130;DHT22;11231;50.746;4.272;2023-08-06T00:05:19;16.90;99.90
22130;DHT22;11231;50.746;4.272;2023-08-06T00:07:49;16.90;99.90
22130;DHT22;11231;50.746;4.272;2023-08-06T00:10:16;17.00;99.90
22130;DHT22;11231;50.746;4.272;2023-08-06T00:12:43;17.00;99.90
22130;DHT22;11231;50.746;4.272;2023-08-06T00:15:10;17.00;99.90
22130;DHT22;11231;50.746;4.272;2023-08-06T00:17:35;17.00;99.90
22130;DHT22;11231;50.746;4.272;2023-08-06T00:20:03;17.00;99.90
22130;DHT22;11231;50.746;4.272;2023-08-06T00:22:35;16.90;99.90
22130;DHT22;11231;50.746;4.272;2023-08-06T00:25:01;16.90;99.90
22130;DHT22;11231;50.746;4.272;2023-08-06T00:27:27;16.90;99.90
22130;DHT22;11231;50.746;4.272;2023-08-06T00:29:53;16.80;99.90
22130;DHT22;11231;50.746;4.272;2023-08-06T00:32:18;16.80;99.90
22130;DHT22;11231;50.746;4.272;2023-08-06T00:34:44;16.80;99.90
22130;DHT22;11231;50.746;4.272;2023-08-06T00:37:10;16.90;99.90
22130;DHT22;11231;50.746;4.272;2023-08-06T00:39:36;17.00;99.90
22130;DHT22;11231;50.746;4.272;2023-08-06T00:42:02;17.00;99.90
22130;DHT22;11231;50.746;4.272;2023-08-06T00:44:28;17.00;99.90
22130;DHT22;11231;50.746;4.272;2023-08-06T00:46:55;17.00;99.90
22130;DHT22;11231;50.746;4.272;2023-08-06T00:49:21;17.10;99.90
22130;DHT22;11231;50.746;4.272;2023-08-06T00:51:47;17.00;99.90
22130;DHT22;11231;50.746;4.272;2023-08-06T00:54:14;17.10;99.90
22130;DHT22;11231;50.746;4.272;2023-08-06T00:56:41;17.20;99.90
22130;DHT22;11231;50.746;4.272;2023-08-06T00:59:08;17.20;99.90
22130;DHT22;11231;50.746;4.272;2023-08-06T01:01:34;17.20;99.90
22130;DHT22;11231;50.746;4.272;2023-08-06T01:04:00;17.20;99.90
22130;DHT22;11231;50.746;4.272;2023-08-06T01:06:43;17.10;99.90
22130;DHT22;11231;50.746;4.272;2023-08-06T01:12:09;17.00;99.90
22130;DHT22;11231;50.746;4.272;2023-08-06T01:17:18;17.00;99.90
22130;DHT22;11231;50.746;4.272;2023-08-06T01:19:44;17.10;99.90
22130;DHT22;11231;50.746;4.272;2023-08-06T01:22:10;17.00;99.90
22130;DHT22;11231;50.746;4.272;2023-08-06T01:24:36;17.20;99.90
22130;DHT22;11231;50.746;4.272;2023-08-06T01:29:39;17.20;99.90
22130;DHT22;11231;50.746;4.272;2023-08-06T01:32:10;17.20;99.90
22130;DHT22;11231;50.746;4.272;2023-08-06T01:34:41;17.20;99.90
22130;DHT22;11231;50.746;4.272;2023-08-06T01:37:10;17.20;99.90
22130;DHT22;11231;50.746;4.272;2023-08-06T01:39:36;17.20;99.90
22130;DHT22;11231;50.746;4.272;2023-08-06T01:42:03;17.20;99.90
22130;DHT22;11231;50.746;4.272;2023-08-06T01:44:29;17.20;99.90
22130;DHT22;11231;50.746;4.272;2023-08-06T01:46:55;17.20;99.90
22130;DHT22;11231;50.746;4.272;2023-08-06T01:49:21;17.20;99.90
22130;DHT22;11231;50.746;4.272;2023-08-06T01:51:46;17.20;99.90
22130;DHT22;11231;50.746;4.272;2023-08-06T01:54:12;17.20;99.90
22130;DHT22;11231;50.746;4.272;2023-08-06T01:56:38;17.20;99.90
22130;DHT22;11231;50.746;4.272;2023-08-06T01:59:04;17.10;99.90
22130;DHT22;11231;50.746;4.272;2023-08-06T02:01:29;17.10;99.90
22130;DHT22;11231;50.746;4.272;2023-08-06T02:03:55;17.00;99.90
22130;DHT22;11231;50.746;4.272;2023-08-06T02:06:21;16.90;99.90
22130;DHT22;11231;50.746;4.272;2023-08-06T02:08:47;17.00;99.90
22130;DHT22;11231;50.746;4.272;2023-08-06T02:11:14;17.00;99.90
22130;DHT22;11231;50.746;4.272;2023-08-06T02:13:40;17.00;99.90
22130;DHT22;11231;50.746;4.272;2023-08-06T02:16:07;16.90;99.90
22130;DHT22;11231;50.746;4.272;2023-08-06T02:18:38;16.80;99.90
22130;DHT22;11231;50.746;4.272;2023-08-06T02:21:04;16.80;99.90
22130;DHT22;11231;50.746;4.272;2023-08-06T02:23:29;16.80;99.90
22130;DHT22;11231;50.746;4.272;2023-08-06T02:26:02;16.80;99.90
22130;DHT22;11231;50.746;4.272;2023-08-06T02:28:29;16.90;99.90
22130;DHT22;11231;50.746;4.272;2023-08-06T02:30:55;16.90;99.90
22130;DHT22;11231;50.746;4.272;2023-08-06T02:33:21;17.00;99.90
22130;DHT22;11231;50.746;4.272;2023-08-06T02:35:47;17.00;99.90
22130;DHT22;11231;50.746;4.272;2023-08-06T02:38:13;16.90;99.90
22130;DHT22;11231;50.746;4.272;2023-08-06T02:40:45;17.00;99.90
22130;DHT22;11231;50.746;4.272;2023-08-06T02:43:11;17.00;99.90
22130;DHT22;11231;50.746;4.272;2023-08-06T02:45:37;17.00;99.90
22130;DHT22;11231;50.746;4.272;2023-08-06T02:48:03;17.00;99.90
22130;DHT22;11231;50.746;4.272;2023-08-06T02:50:29;17.00;99.90
22130;DHT22;11231;50.746;4.272;2023-08-06T02:52:55;17.00;99.90
22130;DHT22;11231;50.746;4.272;2023-08-06T02:55:23;17.10;99.90
22130;DHT22;11231;50.746;4.272;2023-08-06T02:57:49;17.00;99.90
22130;DHT22;11231;50.746;4.272;2023-08-06T03:00:16;17.00;99.90
22130;DHT22;11231;50.746;4.272;2023-08-06T03:02:42;17.00;99.90
22130;DHT22;11231;50.746;4.272;2023-08-06T03:05:26;17.00;99.90
22130;DHT22;11231;50.746;4.272;2023-08-06T03:07:52;17.00;99.90
22130;DHT22;11231;50.746;4.272;2023-08-06T03:10:22;17.00;99.90
22130;DHT22;11231;50.746;4.272;2023-08-06T03:12:50;17.00;99.90
22130;DHT22;11231;50.746;4.272;2023-08-06T03:15:17;17.00;99.90
22130;DHT22;11231;50.746;4.272;2023-08-06T03:17:45;17.00;99.90
22130;DHT22;11231;50.746;4.272;2023-08-06T03:20:11;17.00;99.90
22130;DHT22;11231;50.746;4.272;2023-08-06T03:22:37;16.90;99.90
22130;DHT22;11231;50.746;4.272;2023-08-06T03:25:04;16.90;99.90
22130;DHT22;11231;50.746;4.272;2023-08-06T03:27:29;16.80;99.90
22130;DHT22;11231;50.746;4.272;2023-08-06T03:29:56;16.70;99.90
22130;DHT22;11231;50.746;4.272;2023-08-06T03:32:25;16.60;99.90
22130;DHT22;11231;50.746;4.272;2023-08-06T03:34:52;16.40;99.90
22130;DHT22;11231;50.746;4.272;2023-08-06T03:37:20;16.30;99.90
22130;DHT22;11231;50.746;4.272;2023-08-06T03:39:48;16.10;99.90
22130;DHT22;11231;50.746;4.272;2023-08-06T03:42:14;16.10;99.90
22130;DHT22;11231;50.746;4.272;2023-08-06T03:44:40;16.00;99.90
22130;DHT22;11231;50.746;4.272;2023-08-06T03:47:08;16.00;99.90
22130;DHT22;11231;50.746;4.272;2023-08-06T03:49:34;15.90;99.90
22130;DHT22;11231;50.746;4.272;2023-08-06T03:52:00;15.70;99.90
22130;DHT22;11231;50.746;4.272;2023-08-06T03:54:25;15.60;99.90
22130;DHT22;11231;50.746;4.272;2023-08-06T03:56:51;15.30;99.90
22130;DHT22;11231;50.746;4.272;2023-08-06T03:59:17;15.30;99.90
22130;DHT22;11231;50.746;4.272;2023-08-06T04:01:45;15.30;99.90
22130;DHT22;11231;50.746;4.272;2023-08-06T04:04:11;15.20;99.90
22130;DHT22;11231;50.746;4.272;2023-08-06T04:06:36;15.20;99.90
22130;DHT22;11231;50.746;4.272;2023-08-06T04:09:02;15.20;99.90
22130;DHT22;11231;50.746;4.272;2023-08-06T04:11:28;15.20;99.90
22130;DHT22;11231;50.746;4.272;2023-08-06T04:13:54;15.20;99.90
22130;DHT22;11231;50.746;4.272;2023-08-06T04:16:21;15.10;99.90
22130;DHT22;11231;50.746;4.272;2023-08-06T04:18:47;15.10;99.90
22130;DHT22;11231;50.746;4.272;2023-08-06T04:21:13;15.00;99.90
22130;DHT22;11231;50.746;4.272;2023-08-06T04:23:39;14.90;99.90
22130;DHT22;11231;50.746;4.272;2023-08-06T04:26:07;15.00;99.90
22130;DHT22;11231;50.746;4.272;2023-08-06T04:28:35;15.00;99.90
22130;DHT22;11231;50.746;4.272;2023-08-06T04:31:01;15.10;99.90
22130;DHT22;11231;50.746;4.272;2023-08-06T04:33:28;15.20;99.90
22130;DHT22;11231;50.746;4.272;2023-08-06T04:35:57;15.20;99.90
22130;DHT22;11231;50.746;4.272;2023-08-06T04:38:24;15.10;99.90
22130;DHT22;11231;50.746;4.272;2023-08-06T04:40:51;15.10;99.90
22130;DHT22;11231;50.746;4.272;2023-08-06T04:43:17;15.10;99.90
22130;DHT22;11231;50.746;4.272;2023-08-06T04:45:50;15.00;99.90
22130;DHT22;11231;50.746;4.272;2023-08-06T04:48:16;15.10;99.90
22130;DHT22;11231;50.746;4.272;2023-08-06T04:50:46;15.20;99.90
22130;DHT22;11231;50.746;4.272;2023-08-06T04:53:12;15.20;99.90
22130;DHT22;11231;50.746;4.272;2023-08-06T04:55:38;15.20;99.90
22130;DHT22;11231;50.746;4.272;2023-08-06T04:58:04;15.20;99.90
22130;DHT22;11231;50.746;4.272;2023-08-06T05:00:30;15.10;99.90
22130;DHT22;11231;50.746;4.272;2023-08-06T05:02:56;15.20;99.90
22130;DHT22;11231;50.746;4.272;2023-08-06T05:05:22;15.30;99.90
22130;DHT22;11231;50.746;4.272;2023-08-06T05:07:49;15.30;99.90
22130;DHT22;11231;50.746;4.272;2023-08-06T05:10:15;15.40;99.90
22130;DHT22;11231;50.746;4.272;2023-08-06T05:12:41;15.40;99.90
22130;DHT22;11231;50.746;4.272;2023-08-06T05:15:07;15.50;99.90
22130;DHT22;11231;50.746;4.272;2023-08-06T05:17:33;15.50;99.90
22130;DHT22;11231;50.746;4.272;2023-08-06T05:19:59;15.60;99.90
22130;DHT22;11231;50.746;4.272;2023-08-06T05:22:25;15.50;99.90
22130;DHT22;11231;50.746;4.272;2023-08-06T05:24:51;15.60;99.90
22130;DHT22;11231;50.746;4.272;2023-08-06T05:27:17;15.60;99.90
22130;DHT22;11231;50.746;4.272;2023-08-06T05:29:45;15.60;99.90
22130;DHT22;11231;50.746;4.272;2023-08-06T05:32:11;15.70;99.90
22130;DHT22;11231;50.746;4.272;2023-08-06T05:34:37;15.70;99.90
22130;DHT22;11231;50.746;4.272;2023-08-06T05:37:03;15.80;99.90
22130;DHT22;11231;50.746;4.272;2023-08-06T05:39:29;15.80;99.90
22130;DHT22;11231;50.746;4.272;2023-08-06T05:41:55;15.70;99.90
22130;DHT22;11231;50.746;4.272;2023-08-06T05:44:21;15.70;99.90
22130;DHT22;11231;50.746;4.272;2023-08-06T05:46:48;15.70;99.90
22130;DHT22;11231;50.746;4.272;2023-08-06T05:49:14;15.80;99.90
22130;DHT22;11231;50.746;4.272;2023-08-06T05:51:40;15.70;99.90
22130;DHT22;11231;50.746;4.272;2023-08-06T05:54:06;15.70;99.90
22130;DHT22;11231;50.746;4.272;2023-08-06T05:56:32;15.80;99.90
22130;DHT22;11231;50.746;4.272;2023-08-06T05:58:59;15.70;99.90
22130;DHT22;11231;50.746;4.272;2023-08-06T06:01:24;15.70;99.90
22130;DHT22;11231;50.746;4.272;2023-08-06T06:03:50;15.80;99.90
22130;DHT22;11231;50.746;4.272;2023-08-06T06:06:16;15.80;99.90
22130;DHT22;11231;50.746;4.272;2023-08-06T06:08:43;15.80;99.90
22130;DHT22;11231;50.746;4.272;2023-08-06T06:11:09;15.90;99.90
22130;DHT22;11231;50.746;4.272;2023-08-06T06:13:35;16.00;99.90
22130;DHT22;11231;50.746;4.272;2023-08-06T06:16:01;16.00;99.90
22130;DHT22;11231;50.746;4.272;2023-08-06T06:18:27;16.10;99.90
22130;DHT22;11231;50.746;4.272;2023-08-06T06:20:52;16.20;99.90
22130;DHT22;11231;50.746;4.272;2023-08-06T06:23:18;16.30;99.90
22130;DHT22;11231;50.746;4.272;2023-08-06T06:25:48;16.40;99.90
22130;DHT22;11231;50.746;4.272;2023-08-06T06:28:14;16.50;99.90
22130;DHT22;11231;50.746;4.272;2023-08-06T06:30:41;16.50;99.90
22130;DHT22;11231;50.746;4.272;2023-08-06T06:33:07;16.60;99.90
22130;DHT22;11231;50.746;4.272;2023-08-06T06:35:33;16.60;99.90
22130;DHT22;11231;50.746;4.272;2023-08-06T06:37:59;16.60;99.90
22130;DHT22;11231;50.746;4.272;2023-08-06T06:40:25;16.60;99.90
22130;DHT22;11231;50.746;4.272;2023-08-06T06:42:51;16.60;99.90
22130;DHT22;11231;50.746;4.272;2023-08-06T06:45:17;16.70;99.90
22130;DHT22;11231;50.746;4.272;2023-08-06T06:47:43;16.80;99.90
22130;DHT22;11231;50.746;4.272;2023-08-06T06:50:09;17.00;99.90
22130;DHT22;11231;50.746;4.272;2023-08-06T06:52:35;17.00;99.90
22130;DHT22;11231;50.746;4.272;2023-08-06T06:55:01;17.00;99.90
22130;DHT22;11231;50.746;4.272;2023-08-06T06:57:26;16.80;99.90
22130;DHT22;11231;50.746;4.272;2023-08-06T06:59:52;16.70;99.90
22130;DHT22;11231;50.746;4.272;2023-08-06T07:02:18;16.60;99.90
22130;DHT22;11231;50.746;4.272;2023-08-06T07:04:44;16.40;99.90
22130;DHT22;11231;50.746;4.272;2023-08-06T07:07:09;16.20;99.90
22130;DHT22;11231;50.746;4.272;2023-08-06T07:09:35;16.20;99.90
22130;DHT22;11231;50.746;4.272;2023-08-06T07:12:01;16.20;99.90
22130;DHT22;11231;50.746;4.272;2023-08-06T07:14:28;16.20;99.90
22130;DHT22;11231;50.746;4.272;2023-08-06T07:16:54;16.30;99.90
22130;DHT22;11231;50.746;4.272;2023-08-06T07:19:20;16.50;99.90
22130;DHT22;11231;50.746;4.272;2023-08-06T07:21:46;16.50;99.90
22130;DHT22;11231;50.746;4.272;2023-08-06T07:24:12;16.50;99.90
22130;DHT22;11231;50.746;4.272;2023-08-06T07:26:38;16.30;99.90
22130;DHT22;11231;50.746;4.272;2023-08-06T07:29:04;16.10;99.90
22130;DHT22;11231;50.746;4.272;2023-08-06T07:31:29;15.90;99.90
22130;DHT22;11231;50.746;4.272;2023-08-06T07:33:55;15.80;99.90
22130;DHT22;11231;50.746;4.272;2023-08-06T07:36:21;15.80;99.90
22130;DHT22;11231;50.746;4.272;2023-08-06T07:38:47;16.00;99.90
22130;DHT22;11231;50.746;4.272;2023-08-06T07:41:17;16.20;99.90
22130;DHT22;11231;50.746;4.272;2023-08-06T07:43:42;16.60;99.90
22130;DHT22;11231;50.746;4.272;2023-08-06T07:46:08;16.80;99.90
22130;DHT22;11231;50.746;4.272;2023-08-06T07:48:34;17.00;99.90
22130;DHT22;11231;50.746;4.272;2023-08-06T07:51:00;17.10;99.90
22130;DHT22;11231;50.746;4.272;2023-08-06T07:53:26;17.20;99.90
22130;DHT22;11231;50.746;4.272;2023-08-06T07:55:54;17.10;99.90
22130;DHT22;11231;50.746;4.272;2023-08-06T07:58:20;17.00;99.90
22130;DHT22;11231;50.746;4.272;2023-08-06T08:00:46;17.00;99.90
22130;DHT22;11231;50.746;4.272;2023-08-06T08:03:13;16.90;99.90
22130;DHT22;11231;50.746;4.272;2023-08-06T08:05:40;17.00;99.90
22130;DHT22;11231;50.746;4.272;2023-08-06T08:08:06;17.10;99.90
22130;DHT22;11231;50.746;4.272;2023-08-06T08:10:32;17.10;99.90
22130;DHT22;11231;50.746;4.272;2023-08-06T08:12:58;17.20;99.90
22130;DHT22;11231;50.746;4.272;2023-08-06T08:15:24;17.10;99.90
22130;DHT22;11231;50.746;4.272;2023-08-06T08:17:52;17.20;99.90
22130;DHT22;11231;50.746;4.272;2023-08-06T08:20:18;17.20;99.90
22130;DHT22;11231;50.746;4.272;2023-08-06T08:22:44;17.00;99.90
22130;DHT22;11231;50.746;4.272;2023-08-06T08:25:10;17.00;99.90
22130;DHT22;11231;50.746;4.272;2023-08-06T08:27:35;17.10;99.90
22130;DHT22;11231;50.746;4.272;2023-08-06T08:30:01;17.20;99.90
22130;DHT22;11231;50.746;4.272;2023-08-06T08:32:27;17.30;99.90
22130;DHT22;11231;50.746;4.272;2023-08-06T08:41:50;17.50;99.90
22130;DHT22;11231;50.746;4.272;2023-08-06T08:44:16;17.70;99.90
22130;DHT22;11231;50.746;4.272;2023-08-06T08:46:44;17.80;99.90
22130;DHT22;11231;50.746;4.272;2023-08-06T08:49:11;17.70;99.90
22130;DHT22;11231;50.746;4.272;2023-08-06T08:51:37;17.90;99.90
22130;DHT22;11231;50.746;4.272;2023-08-06T08:54:04;18.10;99.90
22130;DHT22;11231;50.746;4.272;2023-08-06T08:56:31;18.10;99.90
22130;DHT22;11231;50.746;4.272;2023-08-06T08:58:57;18.00;99.90
22130;DHT22;11231;50.746;4.272;2023-08-06T09:01:22;17.50;99.90
22130;DHT22;11231;50.746;4.272;2023-08-06T09:03:50;17.50;99.90
22130;DHT22;11231;50.746;4.272;2023-08-06T09:06:17;17.60;99.90
22130;DHT22;11231;50.746;4.272;2023-08-06T09:09:25;17.70;99.90
22130;DHT22;11231;50.746;4.272;2023-08-06T09:11:52;17.70;99.90
22130;DHT22;11231;50.746;4.272;2023-08-06T09:14:18;17.80;99.90
22130;DHT22;11231;50.746;4.272;2023-08-06T09:16:44;17.50;99.90
22130;DHT22;11231;50.746;4.272;2023-08-06T09:19:11;17.20;99.90
22130;DHT22;11231;50.746;4.272;2023-08-06T09:21:43;17.30;99.90
22130;DHT22;11231;50.746;4.272;2023-08-06T09:24:10;17.30;99.90
22130;DHT22;11231;50.746;4.272;2023-08-06T09:26:37;17.60;99.90
22130;DHT22;11231;50.746;4.272;2023-08-06T09:29:05;17.60;99.90
22130;DHT22;11231;50.746;4.272;2023-08-06T09:31:46;17.50;99.90
22130;DHT22;11231;50.746;4.272;2023-08-06T09:34:16;17.40;99.90
22130;DHT22;11231;50.746;4.272;2023-08-06T09:36:43;17.20;99.90
22130;DHT22;11231;50.746;4.272;2023-08-06T09:39:18;17.20;99.90
22130;DHT22;11231;50.746;4.272;2023-08-06T09:41:45;17.20;99.90
22130;DHT22;11231;50.746;4.272;2023-08-06T09:44:17;17.30;99.90
22130;DHT22;11231;50.746;4.272;2023-08-06T09:47:04;17.10;99.90
22130;DHT22;11231;50.746;4.272;2023-08-06T09:51:58;16.80;99.90
22130;DHT22;11231;50.746;4.272;2023-08-06T09:54:25;16.70;99.90
22130;DHT22;11231;50.746;4.272;2023-08-06T09:56:53;16.70;99.90
22130;DHT22;11231;50.746;4.272;2023-08-06T09:59:19;16.80;99.90
22130;DHT22;11231;50.746;4.272;2023-08-06T10:01:46;16.90;99.90
22130;DHT22;11231;50.746;4.272;2023-08-06T10:04:14;16.90;99.90
22130;DHT22;11231;50.746;4.272;2023-08-06T10:06:42;16.50;99.90
22130;DHT22;11231;50.746;4.272;2023-08-06T10:09:08;16.60;99.90
22130;DHT22;11231;50.746;4.272;2023-08-06T10:11:36;16.70;99.90
22130;DHT22;11231;50.746;4.272;2023-08-06T10:14:08;16.60;99.90
22130;DHT22;11231;50.746;4.272;2023-08-06T10:16:34;16.60;99.90
22130;DHT22;11231;50.746;4.272;2023-08-06T10:19:03;16.70;99.90
22130;DHT22;11231;50.746;4.272;2023-08-06T10:21:31;16.70;99.90
22130;DHT22;11231;50.746;4.272;2023-08-06T10:23:58;16.70;99.90
22130;DHT22;11231;50.746;4.272;2023-08-06T10:26:30;16.70;99.90
22130;DHT22;11231;50.746;4.272;2023-08-06T10:28:56;16.80;99.90
22130;DHT22;11231;50.746;4.272;2023-08-06T10:31:55;17.00;99.90
22130;DHT22;11231;50.746;4.272;2023-08-06T10:34:21;16.90;99.90
22130;DHT22;11231;50.746;4.272;2023-08-06T10:36:47;17.10;99.90
22130;DHT22;11231;50.746;4.272;2023-08-06T10:39:15;17.00;99.90
22130;DHT22;11231;50.746;4.272;2023-08-06T10:41:44;17.00;99.90
22130;DHT22;11231;50.746;4.272;2023-08-06T10:44:11;16.90;99.90
22130;DHT22;11231;50.746;4.272;2023-08-06T10:46:37;16.90;99.90
22130;DHT22;11231;50.746;4.272;2023-08-06T10:49:04;16.90;99.90
22130;DHT22;11231;50.746;4.272;2023-08-06T10:51:30;16.90;99.90
22130;DHT22;11231;50.746;4.272;2023-08-06T10:53:56;17.20;99.90
22130;DHT22;11231;50.746;4.272;2023-08-06T10:56:25;17.40;99.90
22130;DHT22;11231;50.746;4.272;2023-08-06T10:58:56;17.50;99.90
22130;DHT22;11231;50.746;4.272;2023-08-06T11:01:23;17.70;99.90
22130;DHT22;11231;50.746;4.272;2023-08-06T11:03:49;18.00;99.90
22130;DHT22;11231;50.746;4.272;2023-08-06T11:06:22;18.30;99.90
22130;DHT22;11231;50.746;4.272;2023-08-06T11:08:53;18.30;99.90
22130;DHT22;11231;50.746;4.272;2023-08-06T11:11:20;18.30;99.90
22130;DHT22;11231;50.746;4.272;2023-08-06T11:13:48;18.50;99.90
22130;DHT22;11231;50.746;4.272;2023-08-06T11:16:27;18.50;99.90
22130;DHT22;11231;50.746;4.272;2023-08-06T11:18:53;18.60;99.90
22130;DHT22;11231;50.746;4.272;2023-08-06T11:21:22;18.70;99.90
22130;DHT22;11231;50.746;4.272;2023-08-06T11:23:51;19.20;99.90
22130;DHT22;11231;50.746;4.272;2023-08-06T11:26:21;19.60;99.90
22130;DHT22;11231;50.746;4.272;2023-08-06T11:28:46;20.10;99.90
22130;DHT22;11231;50.746;4.272;2023-08-06T11:31:22;20.30;99.90
22130;DHT22;11231;50.746;4.272;2023-08-06T11:33:53;20.20;99.90
22130;DHT22;11231;50.746;4.272;2023-08-06T11:36:37;19.80;99.90
22130;DHT22;11231;50.746;4.272;2023-08-06T11:39:05;19.10;99.90
22130;DHT22;11231;50.746;4.272;2023-08-06T11:41:32;18.90;99.90
22130;DHT22;11231;50.746;4.272;2023-08-06T11:44:01;18.60;99.90
22130;DHT22;11231;50.746;4.272;2023-08-06T11:46:27;18.10;99.90
22130;DHT22;11231;50.746;4.272;2023-08-06T11:48:58;17.90;99.90
22130;DHT22;11231;50.746;4.272;2023-08-06T11:51:28;17.90;99.90
22130;DHT22;11231;50.746;4.272;2023-08-06T11:54:00;18.10;99.90
22130;DHT22;11231;50.746;4.272;2023-08-06T11:56:27;17.90;99.90
22130;DHT22;11231;50.746;4.272;2023-08-06T11:58:54;17.60;99.90
22130;DHT22;11231;50.746;4.272;2023-08-06T12:01:20;17.50;99.90
22130;DHT22;11231;50.746;4.272;2023-08-06T12:03:46;17.50;99.90
22130;DHT22;11231;50.746;4.272;2023-08-06T12:06:12;17.30;99.90
22130;DHT22;11231;50.746;4.272;2023-08-06T12:08:37;17.20;99.90
22130;DHT22;11231;50.746;4.272;2023-08-06T12:11:04;16.90;99.90
22130;DHT22;11231;50.746;4.272;2023-08-06T12:13:29;16.90;99.90
22130;DHT22;11231;50.746;4.272;2023-08-06T12:15:55;17.10;99.90
22130;DHT22;11231;50.746;4.272;2023-08-06T12:18:23;17.50;99.90
22130;DHT22;11231;50.746;4.272;2023-08-06T12:20:48;17.70;99.90
22130;DHT22;11231;50.746;4.272;2023-08-06T12:23:14;17.70;99.90
22130;DHT22;11231;50.746;4.272;2023-08-06T12:25:41;18.00;99.90
22130;DHT22;11231;50.746;4.272;2023-08-06T12:28:07;17.80;99.90
22130;DHT22;11231;50.746;4.272;2023-08-06T12:30:34;17.70;99.90
22130;DHT22;11231;50.746;4.272;2023-08-06T12:33:00;17.70;99.90
22130;DHT22;11231;50.746;4.272;2023-08-06T12:35:26;17.80;99.90
22130;DHT22;11231;50.746;4.272;2023-08-06T12:37:52;17.80;99.90
22130;DHT22;11231;50.746;4.272;2023-08-06T12:40:20;17.60;99.90
22130;DHT22;11231;50.746;4.272;2023-08-06T12:42:46;17.30;99.90
22130;DHT22;11231;50.746;4.272;2023-08-06T12:45:12;16.80;99.90
22130;DHT22;11231;50.746;4.272;2023-08-06T12:47:38;16.60;99.90
22130;DHT22;11231;50.746;4.272;2023-08-06T12:50:04;16.80;99.90
22130;DHT22;11231;50.746;4.272;2023-08-06T12:52:29;17.10;99.90
22130;DHT22;11231;50.746;4.272;2023-08-06T12:54:55;17.20;99.90
22130;DHT22;11231;50.746;4.272;2023-08-06T12:57:21;17.30;99.90
22130;DHT22;11231;50.746;4.272;2023-08-06T12:59:47;17.40;99.90
22130;DHT22;11231;50.746;4.272;2023-08-06T13:02:13;17.50;99.90
22130;DHT22;11231;50.746;4.272;2023-08-06T13:04:39;17.70;99.90
22130;DHT22;11231;50.746;4.272;2023-08-06T13:07:05;18.00;99.90
22130;DHT22;11231;50.746;4.272;2023-08-06T13:09:32;18.10;99.90
22130;DHT22;11231;50.746;4.272;2023-08-06T13:11:58;18.00;99.90
22130;DHT22;11231;50.746;4.272;2023-08-06T13:14:25;17.60;99.90
22130;DHT22;11231;50.746;4.272;2023-08-06T13:16:51;17.30;99.90
22130;DHT22;11231;50.746;4.272;2023-08-06T13:19:17;17.40;99.90
22130;DHT22;11231;50.746;4.272;2023-08-06T13:24:15;17.40;99.90
22130;DHT22;11231;50.746;4.272;2023-08-06T13:26:41;17.40;99.90
22130;DHT22;11231;50.746;4.272;2023-08-06T13:29:07;17.60;99.90
22130;DHT22;11231;50.746;4.272;2023-08-06T13:31:33;17.70;99.90
22130;DHT22;11231;50.746;4.272;2023-08-06T13:33:58;17.60;99.90
22130;DHT22;11231;50.746;4.272;2023-08-06T13:36:27;17.80;99.90
22130;DHT22;11231;50.746;4.272;2023-08-06T13:38:54;17.70;99.90
22130;DHT22;11231;50.746;4.272;2023-08-06T13:41:20;18.00;99.90
22130;DHT22;11231;50.746;4.272;2023-08-06T13:43:46;17.50;99.90
22130;DHT22;11231;50.746;4.272;2023-08-06T13:46:12;17.60;99.90
22130;DHT22;11231;50.746;4.272;2023-08-06T13:48:42;17.60;99.90
22130;DHT22;11231;50.746;4.272;2023-08-06T13:51:09;17.60;99.90
22130;DHT22;11231;50.746;4.272;2023-08-06T13:53:35;17.70;99.90
22130;DHT22;11231;50.746;4.272;2023-08-06T13:56:00;17.70;99.90
22130;DHT22;11231;50.746;4.272;2023-08-06T13:58:26;17.70;99.90
22130;DHT22;11231;50.746;4.272;2023-08-06T14:00:53;17.80;99.90
22130;DHT22;11231;50.746;4.272;2023-08-06T14:03:20;17.90;99.90
22130;DHT22;11231;50.746;4.272;2023-08-06T14:05:46;17.90;99.90
22130;DHT22;11231;50.746;4.272;2023-08-06T14:08:12;17.70;99.90
22130;DHT22;11231;50.746;4.272;2023-08-06T14:10:39;17.30;99.90
22130;DHT22;11231;50.746;4.272;2023-08-06T14:13:04;17.00;99.90
22130;DHT22;11231;50.746;4.272;2023-08-06T14:15:30;16.90;99.90
22130;DHT22;11231;50.746;4.272;2023-08-06T14:17:56;16.80;99.90
22130;DHT22;11231;50.746;4.272;2023-08-06T14:20:22;16.90;99.90
22130;DHT22;11231;50.746;4.272;2023-08-06T14:22:48;17.00;99.90
22130;DHT22;11231;50.746;4.272;2023-08-06T14:25:14;17.20;99.90
22130;DHT22;11231;50.746;4.272;2023-08-06T14:27:40;17.20;99.90
22130;DHT22;11231;50.746;4.272;2023-08-06T14:30:07;17.20;99.90
22130;DHT22;11231;50.746;4.272;2023-08-06T14:32:33;17.20;99.90
22130;DHT22;11231;50.746;4.272;2023-08-06T14:34:59;17.30;99.90
22130;DHT22;11231;50.746;4.272;2023-08-06T14:37:25;17.50;99.90
22130;DHT22;11231;50.746;4.272;2023-08-06T14:39:51;17.40;99.90
22130;DHT22;11231;50.746;4.272;2023-08-06T14:42:17;17.40;99.90
22130;DHT22;11231;50.746;4.272;2023-08-06T14:44:43;17.60;99.90
22130;DHT22;11231;50.746;4.272;2023-08-06T14:47:09;17.80;99.90
22130;DHT22;11231;50.746;4.272;2023-08-06T14:49:35;17.90;99.90
22130;DHT22;11231;50.746;4.272;2023-08-06T14:52:01;17.90;99.90
22130;DHT22;11231;50.746;4.272;2023-08-06T14:54:27;18.00;99.90
22130;DHT22;11231;50.746;4.272;2023-08-06T14:56:53;17.90;99.90
22130;DHT22;11231;50.746;4.272;2023-08-06T14:59:19;17.60;99.90
22130;DHT22;11231;50.746;4.272;2023-08-06T15:01:45;17.70;99.90
22130;DHT22;11231;50.746;4.272;2023-08-06T15:04:10;17.70;99.90
22130;DHT22;11231;50.746;4.272;2023-08-06T15:06:36;17.80;99.90
22130;DHT22;11231;50.746;4.272;2023-08-06T15:09:02;17.70;99.90
22130;DHT22;11231;50.746;4.272;2023-08-06T15:11:28;17.90;99.90
22130;DHT22;11231;50.746;4.272;2023-08-06T15:13:53;18.00;99.90
22130;DHT22;11231;50.746;4.272;2023-08-06T15:16:19;17.80;99.90
22130;DHT22;11231;50.746;4.272;2023-08-06T15:18:45;17.90;99.90
22130;DHT22;11231;50.746;4.272;2023-08-06T15:21:11;17.80;99.90
22130;DHT22;11231;50.746;4.272;2023-08-06T15:23:37;18.00;99.90
22130;DHT22;11231;50.746;4.272;2023-08-06T15:26:03;17.80;99.90
22130;DHT22;11231;50.746;4.272;2023-08-06T15:28:29;17.90;99.90
22130;DHT22;11231;50.746;4.272;2023-08-06T15:30:55;17.90;99.90
22130;DHT22;11231;50.746;4.272;2023-08-06T15:33:21;17.90;99.90
22130;DHT22;11231;50.746;4.272;2023-08-06T15:35:47;17.90;99.90
22130;DHT22;11231;50.746;4.272;2023-08-06T15:38:13;18.10;99.90
22130;DHT22;11231;50.746;4.272;2023-08-06T15:40:39;18.10;99.90
22130;DHT22;11231;50.746;4.272;2023-08-06T15:43:05;18.50;99.90
22130;DHT22;11231;50.746;4.272;2023-08-06T15:45:31;18.70;99.90
22130;DHT22;11231;50.746;4.272;2023-08-06T15:47:57;18.70;99.90